LRCT - CAMPIA TURZII

Compiled: 17:54:16 on 22/07/2018

Latest METAR/SPECI Reports

METAR LRCT 221700Z 35009KT 9999 -SHRA VCTS FEW040CB BKN080 19/18 Q1009 BLU BLU=

Previous reports

METAR LRCT 221600Z 24015KT 8000 5000W -TSRA SCT030CB OVC070 20/18 Q1010 BLU BLU=
METAR LRCT 221500Z 22010KT 9999 -TS VCSH SCT035CB BKN080 23/17 Q1010 BLU BLU=
METAR LRCT 221400Z 22008KT 9999 -TS VCSH SCT035CB BKN090 25/18 Q1010 BLU BLU=
METAR LRCT 221300Z 18006KT 9999 VCSH FEW040CB BKN090 25/18 Q1010 BLU BLU=

Latest TAF report

TAF LRCT 221700Z 2218/2318 32005KT 9999 FEW060 SCT120 PROB30 TEMPO 2217/2221 VRB15KT 7000 SHRA FEW040CB BKN090 TEMPO 2222/2301 7000 SKC PROB30 TEMPO 2302/2306 VRB03KT 0800 FG BKN002 BECMG 2309/2311 36006KT FEW040 BKN070 TEMPO 2312/2316 VRB15KT 7000 SHRA SCT030CB OVC070=

Valid WARNINGS

No valid warnings for LRCT